Bookmark and Share
Track history (hours):
 

Leukimmi

Last reported at 2014-Mar-17 13:19 UTC. Time now 2014-Apr-17 12:45 UTC.
Position N 39°30' E 020°15'.
Warning: this ship's position is 30 days out of date.

Length 65 m; draft 2.5 m.

Type: Passenger vessel. MMSI: 237671800.

NotesDate/timePositionNaut miles runAvg speedWind from/ knotsBaromVisibWave heightAir tempDewpointWater temp
2014-Mar-17 13:19N 39°30' E 020°15'6 8.5
2014-Mar-17 12:33N 39°26' E 020°08'1 1.1
2014-Mar-17 11:33N 39°27' E 020°09'6 6.2
2014-Mar-17 10:34N 39°30' E 020°16'0 0.0
2014-Mar-17 09:33N 39°30' E 020°16'7 7.3
2014-Mar-17 08:33N 39°26' E 020°08'2 1.5
2014-Mar-17 07:33N 39°27' E 020°09'6 5.8
2014-Mar-17 06:32N 39°30' E 020°16'7 7.4
2014-Mar-17 05:33N 39°26' E 020°08'1 0.1
2014-Mar-16 17:33N 39°27' E 020°09'6 6.1
2014-Mar-16 16:34N 39°30' E 020°16'7 6.7
2014-Mar-16 15:33N 39°27' E 020°08'7 3.3
2014-Mar-16 13:33N 39°30' E 020°16'7 7.2
2014-Mar-16 12:33N 39°26' E 020°08'1 1.1
2014-Mar-16 11:33N 39°27' E 020°09'6 6.2
2014-Mar-16 10:33N 39°30' E 020°16'0 0.0
2014-Mar-16 09:34N 39°30' E 020°16'7 7.2
2014-Mar-16 08:33N 39°26' E 020°08'1 1.5
2014-Mar-16 07:33N 39°27' E 020°09'6 5.9
2014-Mar-16 06:33N 39°30' E 020°16'7 6.9
2014-Mar-16 05:33N 39°26' E 020°08'2 2.3
2014-Mar-16 04:33N 39°25' E 020°06'  

Dump ship's entire track history

sailing weather and tide predictions

Leukimmi — SY3734 — position and weather